createdAt,value
2023-02-04T00:02:07.695Z,2.03
2023-02-04T00:04:34.790Z,2.40
2023-02-04T00:07:08.309Z,2.35
2023-02-04T00:09:35.595Z,2.13
2023-02-04T00:12:02.706Z,2.10
2023-02-04T00:14:36.344Z,2.28
2023-02-04T00:17:03.566Z,2.28
2023-02-04T00:19:37.411Z,2.72
2023-02-04T00:22:04.930Z,2.08
2023-02-04T00:24:32.020Z,2.45
2023-02-04T00:27:05.411Z,2.22
2023-02-04T00:29:39.237Z,2.30
2023-02-04T00:32:19.378Z,2.20
2023-02-04T00:34:46.623Z,2.13
2023-02-04T00:37:20.294Z,2.30
2023-02-04T00:39:47.570Z,2.15
2023-02-04T00:42:14.721Z,2.17
2023-02-04T00:44:48.387Z,2.03
2023-02-04T00:47:15.774Z,2.13
2023-02-04T00:52:16.534Z,2.27
2023-02-04T00:54:43.754Z,2.20
2023-02-04T00:57:17.522Z,2.35
2023-02-04T00:59:44.753Z,2.30
2023-02-04T01:02:12.515Z,2.30
2023-02-04T01:04:46.279Z,2.53
2023-02-04T01:07:13.695Z,2.30
2023-02-04T01:09:47.443Z,2.40
2023-02-04T01:12:14.595Z,2.33
2023-02-04T01:14:41.807Z,2.00
2023-02-04T01:17:15.278Z,2.03
2023-02-04T01:19:42.471Z,2.05
2023-02-04T01:22:16.356Z,2.15
2023-02-04T01:24:43.754Z,2.10
2023-02-04T01:29:44.393Z,2.17
2023-02-04T01:32:11.537Z,2.22
2023-02-04T01:34:45.431Z,2.00
2023-02-04T01:37:12.609Z,2.10
2023-02-04T01:39:39.710Z,2.20
2023-02-04T01:42:13.300Z,2.53
2023-02-04T01:44:40.631Z,1.75
2023-02-04T01:49:41.838Z,2.00
2023-02-04T01:54:42.467Z,1.60
2023-02-04T01:57:14.226Z,1.80
2023-02-04T01:59:49.454Z,2.40
2023-02-04T02:02:35.187Z,2.10
2023-02-04T02:05:09.447Z,1.83
2023-02-04T02:07:36.917Z,2.13
2023-02-04T02:10:05.890Z,2.00
2023-02-04T02:12:39.305Z,1.83
2023-02-04T02:15:06.754Z,1.77
2023-02-04T02:17:34.056Z,1.85
2023-02-04T02:20:08.311Z,1.98
2023-02-04T02:22:42.607Z,2.10
2023-02-04T02:25:17.307Z,1.88
2023-02-04T02:27:44.891Z,1.80
2023-02-04T02:30:19.349Z,1.95
2023-02-04T02:32:53.362Z,1.85
2023-02-04T02:35:27.284Z,1.95
2023-02-04T02:37:54.463Z,2.05
2023-02-04T02:40:28.848Z,1.77
2023-02-04T02:42:56.270Z,1.75
2023-02-04T02:45:25.578Z,2.17
2023-02-04T02:47:59.338Z,1.88
2023-02-04T02:50:28.047Z,1.92
2023-02-04T02:53:02.427Z,1.90
2023-02-04T02:55:29.649Z,2.00
2023-02-04T02:57:57.363Z,1.95
2023-02-04T03:00:32.561Z,1.85
2023-02-04T03:03:05.500Z,1.92
2023-02-04T03:05:41.421Z,1.60
2023-02-04T03:08:10.017Z,2.42
2023-02-04T03:10:44.313Z,1.95
2023-02-04T03:13:12.381Z,1.80
2023-02-04T03:15:39.581Z,2.15
2023-02-04T03:18:13.334Z,2.08
2023-02-04T03:20:41.218Z,2.97
2023-02-04T03:23:08.505Z,1.92
2023-02-04T03:25:42.300Z,1.80
2023-02-04T03:28:10.192Z,1.88
2023-02-04T03:30:51.527Z,1.65
2023-02-04T03:33:18.698Z,1.80
2023-02-04T03:35:45.872Z,2.17
2023-02-04T03:38:20.002Z,1.67
2023-02-04T03:40:47.441Z,1.60
2023-02-04T03:45:48.640Z,2.03
2023-02-04T03:48:15.753Z,2.00
2023-02-04T03:50:49.308Z,2.00
2023-02-04T03:53:16.573Z,1.95
2023-02-04T03:55:50.448Z,1.95
2023-02-04T03:58:17.833Z,1.80
2023-02-04T04:03:18.468Z,3.17
2023-02-04T04:05:45.677Z,2.65
2023-02-04T04:08:12.813Z,3.83
2023-02-04T04:10:46.347Z,3.78
2023-02-04T04:13:13.618Z,4.72
2023-02-04T04:15:47.470Z,4.15
2023-02-04T04:18:15.815Z,4.60
2023-02-04T04:20:42.936Z,4.97
2023-02-04T04:23:16.304Z,5.70
2023-02-04T04:25:43.474Z,5.20
2023-02-04T04:28:17.499Z,4.90
2023-02-04T04:30:51.368Z,5.90
2023-02-04T04:33:25.352Z,6.05
2023-02-04T04:35:52.515Z,6.30
2023-02-04T04:38:19.641Z,6.50
2023-02-04T04:40:53.367Z,6.32
2023-02-04T04:43:21.123Z,6.25
2023-02-04T04:45:55.535Z,6.13
2023-02-04T04:48:25.343Z,6.87
2023-02-04T04:50:52.500Z,6.93
2023-02-04T04:53:26.470Z,6.78
2023-02-04T04:55:53.732Z,7.33
2023-02-04T04:58:20.820Z,8.38
2023-02-04T05:00:55.579Z,7.43
2023-02-04T05:03:22.960Z,7.70
2023-02-04T05:08:25.376Z,7.83
2023-02-04T05:10:52.555Z,6.77
2023-02-04T05:13:26.437Z,6.78
2023-02-04T05:15:53.591Z,7.57
2023-02-04T05:18:27.434Z,7.22
2023-02-04T05:20:54.616Z,6.17
2023-02-04T05:23:21.713Z,6.20
2023-02-04T05:25:55.331Z,5.72
2023-02-04T05:28:22.578Z,5.30
2023-02-04T05:33:30.248Z,4.40
2023-02-04T05:36:04.432Z,4.63
2023-02-04T05:38:31.596Z,4.27
2023-02-04T05:40:58.677Z,4.88
2023-02-04T05:43:32.334Z,5.78
2023-02-04T05:45:59.671Z,4.93
2023-02-04T05:48:33.335Z,4.90
2023-02-04T05:51:00.525Z,4.83
2023-02-04T05:53:34.601Z,5.53
2023-02-04T05:56:01.764Z,3.90
2023-02-04T05:58:33.716Z,5.35
2023-02-04T06:01:08.364Z,5.47
2023-02-04T06:03:35.757Z,5.47
2023-02-04T06:06:09.352Z,5.97
2023-02-04T06:08:36.545Z,6.70
2023-02-04T06:13:37.406Z,7.17
2023-02-04T06:16:04.645Z,6.37
2023-02-04T06:21:05.720Z,5.77
2023-02-04T06:26:09.343Z,4.83
2023-02-04T06:28:36.590Z,5.30
2023-02-04T06:33:44.723Z,5.43
2023-02-04T06:38:45.432Z,5.07
2023-02-04T06:41:12.699Z,5.43
2023-02-04T06:43:46.429Z,6.53
2023-02-04T06:46:13.783Z,6.17
2023-02-04T06:48:40.930Z,6.50
2023-02-04T06:53:44.125Z,4.87
2023-02-04T06:56:24.523Z,4.87
2023-02-04T06:58:51.766Z,4.87
2023-02-04T07:01:18.900Z,4.50
2023-02-04T07:06:19.690Z,4.10
2023-02-04T07:08:54.371Z,5.03
2023-02-04T07:11:21.548Z,5.40
2023-02-04T07:16:22.433Z,5.23
2023-02-04T07:18:56.322Z,5.93
2023-02-04T07:21:30.445Z,7.17
2023-02-04T07:23:57.608Z,5.63
2023-02-04T07:28:59.317Z,5.47
2023-02-04T07:31:46.391Z,5.50
2023-02-04T07:34:23.670Z,5.47
2023-02-04T07:36:50.888Z,3.70
2023-02-04T07:39:17.986Z,5.67
2023-02-04T07:44:18.492Z,5.00
2023-02-04T07:49:19.809Z,4.83
2023-02-04T07:51:46.893Z,4.30
2023-02-04T07:56:47.639Z,5.00
2023-02-04T07:59:21.451Z,4.83
2023-02-04T08:01:49.773Z,5.10
2023-02-04T08:04:17.070Z,5.70
2023-02-04T08:06:50.315Z,4.40
2023-02-04T08:09:17.492Z,4.53
2023-02-04T08:14:25.247Z,3.63
2023-02-04T08:16:59.326Z,4.00
2023-02-04T08:19:33.297Z,3.90
2023-02-04T08:22:00.576Z,4.30
2023-02-04T08:24:27.765Z,4.00
2023-02-04T08:29:28.530Z,3.10
2023-02-04T08:34:36.486Z,3.30
2023-02-04T08:37:10.639Z,4.10
2023-02-04T08:39:38.473Z,3.73
2023-02-04T08:42:05.621Z,4.30
2023-02-04T08:44:39.324Z,3.53
2023-02-04T08:47:06.493Z,3.57
2023-02-04T08:49:40.340Z,3.05
2023-02-04T08:52:08.029Z,3.50
2023-02-04T08:54:42.421Z,3.53
2023-02-04T08:57:09.563Z,3.60
2023-02-04T08:59:43.367Z,4.05
2023-02-04T09:02:10.797Z,3.33
2023-02-04T09:04:37.963Z,3.23
2023-02-04T09:07:11.340Z,3.75
2023-02-04T09:09:38.528Z,3.40
2023-02-04T09:12:12.471Z,3.47
2023-02-04T09:14:39.684Z,3.57
2023-02-04T09:17:07.648Z,3.38
2023-02-04T09:19:41.370Z,3.57
2023-02-04T09:22:08.598Z,2.80
2023-02-04T09:24:42.490Z,3.45
2023-02-04T09:27:09.665Z,3.27
2023-02-04T09:29:43.682Z,3.65
2023-02-04T09:32:17.382Z,2.80
2023-02-04T09:34:51.399Z,3.00
2023-02-04T09:37:18.566Z,2.90
2023-02-04T09:39:45.759Z,3.60
2023-02-04T09:42:23.369Z,3.10
2023-02-04T09:44:50.695Z,2.70
2023-02-04T09:49:51.646Z,2.90
2023-02-04T09:52:25.397Z,2.60
2023-02-04T09:54:52.621Z,2.60
2023-02-04T09:57:20.873Z,2.70
2023-02-04T09:59:54.369Z,3.63
2023-02-04T10:02:25.040Z,2.90
2023-02-04T10:05:00.483Z,3.28
2023-02-04T10:07:28.906Z,3.03
2023-02-04T10:10:03.490Z,2.92
2023-02-04T10:12:32.120Z,2.88
2023-02-04T10:15:00.558Z,2.77
2023-02-04T10:17:34.462Z,2.97
2023-02-04T10:20:01.722Z,3.78
2023-02-04T10:22:35.336Z,2.85
2023-02-04T10:25:02.528Z,3.37
2023-02-04T10:27:36.376Z,3.78
2023-02-04T10:30:31.581Z,4.20
2023-02-04T10:33:05.406Z,4.13
2023-02-04T10:35:32.561Z,4.70
2023-02-04T10:38:13.452Z,4.78
2023-02-04T10:40:41.062Z,5.10
2023-02-04T10:43:12.006Z,5.28
2023-02-04T10:45:45.489Z,4.78
2023-02-04T10:48:19.746Z,3.78
2023-02-04T10:50:54.374Z,4.82
2023-02-04T10:53:41.994Z,5.00
2023-02-04T10:56:21.393Z,4.72
2023-02-04T10:58:48.915Z,4.82
2023-02-04T11:01:23.369Z,5.18
2023-02-04T11:03:52.370Z,5.78
2023-02-04T11:06:28.630Z,7.03
2023-02-04T11:08:55.962Z,4.80
2023-02-04T11:11:26.970Z,5.00
2023-02-04T11:14:01.370Z,6.93
2023-02-04T11:16:42.275Z,5.80
2023-02-04T11:19:14.604Z,6.30
2023-02-04T11:21:50.300Z,6.70
2023-02-04T11:24:17.446Z,6.80
2023-02-04T11:26:55.314Z,6.93
2023-02-04T11:29:26.683Z,8.73
2023-02-04T11:32:08.311Z,9.68
2023-02-04T11:34:48.754Z,9.18
2023-02-04T11:37:27.305Z,9.25
2023-02-04T11:39:54.737Z,10.90
2023-02-04T11:45:13.500Z,9.90
2023-02-04T11:47:47.326Z,8.27
2023-02-04T11:50:24.964Z,11.02
2023-02-04T11:58:58.373Z,7.05
2023-02-04T12:01:33.459Z,7.70
2023-02-04T12:04:01.910Z,9.35
2023-02-04T12:06:30.983Z,7.43
2023-02-04T12:09:23.364Z,8.50
2023-02-04T12:11:54.293Z,8.32
2023-02-04T12:14:28.443Z,9.32
2023-02-04T12:16:56.379Z,9.77
2023-02-04T12:19:25.656Z,8.93
2023-02-04T12:22:02.446Z,8.13
2023-02-04T12:24:29.703Z,8.90
2023-02-04T12:27:03.602Z,9.23
2023-02-04T12:29:30.745Z,8.80
2023-02-04T12:31:57.897Z,6.60
2023-02-04T12:34:31.456Z,7.13
2023-02-04T12:36:58.604Z,9.75
2023-02-04T12:39:32.368Z,9.10
2023-02-04T12:41:59.601Z,7.82
2023-02-04T12:44:26.762Z,7.18
2023-02-04T12:47:01.452Z,7.97
2023-02-04T12:49:28.709Z,9.52
2023-02-04T12:52:05.697Z,8.02
2023-02-04T12:54:32.959Z,7.82
2023-02-04T12:57:00.115Z,8.50
2023-02-04T12:59:34.384Z,8.13
2023-02-04T13:02:11.057Z,5.70
2023-02-04T13:04:45.400Z,6.85
2023-02-04T13:07:12.541Z,10.90
2023-02-04T13:09:39.606Z,8.00
2023-02-04T13:12:13.377Z,3.92
2023-02-04T13:14:40.984Z,4.28
2023-02-04T13:17:14.447Z,5.20
2023-02-04T13:19:41.595Z,8.02
2023-02-04T13:22:15.514Z,3.03
2023-02-04T13:24:43.386Z,4.00
2023-02-04T13:27:10.487Z,3.72
2023-02-04T13:29:44.381Z,3.08
2023-02-04T13:32:11.826Z,2.90
2023-02-04T13:37:12.547Z,1.92
2023-02-04T13:39:39.666Z,2.80
2023-02-04T13:42:13.390Z,9.48
2023-02-04T13:44:40.563Z,2.97
2023-02-04T13:47:14.395Z,3.92
2023-02-04T13:49:41.544Z,3.20
2023-02-04T13:52:08.642Z,3.10
2023-02-04T13:54:42.633Z,3.20
2023-02-04T13:57:09.809Z,2.65
2023-02-04T13:59:50.589Z,2.53
2023-02-04T14:02:17.857Z,2.67
2023-02-04T14:04:44.968Z,3.38
2023-02-04T14:07:18.396Z,2.80
2023-02-04T14:09:48.186Z,2.95
2023-02-04T14:12:22.573Z,3.25
2023-02-04T14:14:49.784Z,2.58
2023-02-04T14:17:17.066Z,3.40
2023-02-04T14:19:50.394Z,2.60
2023-02-04T14:22:18.036Z,2.92
2023-02-04T14:24:51.501Z,2.70
2023-02-04T14:27:18.854Z,2.92
2023-02-04T14:29:45.941Z,3.15
2023-02-04T14:32:19.369Z,3.30
2023-02-04T14:34:46.554Z,2.55
2023-02-04T14:37:20.519Z,3.20
2023-02-04T14:39:47.839Z,3.30
2023-02-04T14:42:14.941Z,3.20
2023-02-04T14:44:48.371Z,2.50
2023-02-04T14:47:15.538Z,2.60
2023-02-04T14:49:49.394Z,2.40
2023-02-04T14:52:17.079Z,2.45
2023-02-04T14:54:50.609Z,2.75
2023-02-04T14:57:17.750Z,2.78
2023-02-04T14:59:57.570Z,2.65
2023-02-04T15:02:25.182Z,2.47
2023-02-04T15:04:52.301Z,2.60
2023-02-04T15:07:26.493Z,2.85
2023-02-04T15:09:53.745Z,2.30
2023-02-04T15:12:28.552Z,2.90
2023-02-04T15:14:55.708Z,2.53
2023-02-04T15:17:22.836Z,2.17
2023-02-04T15:19:56.511Z,2.75
2023-02-04T15:22:23.759Z,2.38
2023-02-04T15:24:50.872Z,2.17
2023-02-04T15:27:31.424Z,2.60
2023-02-04T15:29:58.506Z,2.60
2023-02-04T15:32:32.540Z,2.65
2023-02-04T15:34:59.618Z,2.58
2023-02-04T15:37:26.785Z,3.05
2023-02-04T15:40:00.558Z,3.67
2023-02-04T15:42:27.881Z,2.78
2023-02-04T15:45:01.488Z,2.58
2023-02-04T15:47:31.832Z,2.83
2023-02-04T15:49:58.964Z,2.67
2023-02-04T15:52:32.493Z,2.30
2023-02-04T15:54:59.833Z,2.92
2023-02-04T15:57:33.472Z,2.42
2023-02-04T16:00:07.401Z,2.22
2023-02-04T16:02:48.525Z,2.50
2023-02-04T16:05:15.760Z,2.78
2023-02-04T16:07:42.836Z,2.67
2023-02-04T16:10:18.061Z,3.13
2023-02-04T16:12:46.480Z,2.70
2023-02-04T16:15:20.566Z,2.30
2023-02-04T16:17:48.312Z,2.28
2023-02-04T16:20:15.488Z,2.53
2023-02-04T16:22:49.497Z,3.45
2023-02-04T16:25:16.745Z,2.45
2023-02-04T16:27:54.738Z,2.22
2023-02-04T16:32:48.989Z,3.40
2023-02-04T16:35:22.667Z,3.33
2023-02-04T16:37:49.774Z,3.33
2023-02-04T16:40:18.179Z,3.90
2023-02-04T16:42:51.493Z,3.95
2023-02-04T16:45:25.485Z,3.88
2023-02-04T16:47:52.680Z,3.13
2023-02-04T16:50:21.995Z,3.25
2023-02-04T16:52:55.504Z,2.78
2023-02-04T16:55:23.037Z,2.92
2023-02-04T16:57:56.537Z,3.08
2023-02-04T17:00:30.458Z,3.17
2023-02-04T17:03:04.698Z,3.00
2023-02-04T17:05:32.363Z,3.20
2023-02-04T17:07:59.684Z,3.72
2023-02-04T17:10:52.537Z,3.70
2023-02-04T17:13:26.498Z,3.35
2023-02-04T17:15:59.359Z,3.13
2023-02-04T17:18:34.360Z,2.90
2023-02-04T17:21:02.801Z,2.80
2023-02-04T17:23:29.953Z,3.45
2023-02-04T17:26:03.497Z,4.05
2023-02-04T17:28:30.742Z,3.08
2023-02-04T17:31:04.564Z,3.40
2023-02-04T17:33:32.980Z,3.40
2023-02-04T17:36:13.440Z,3.00
2023-02-04T17:38:40.673Z,3.27
2023-02-04T17:41:07.852Z,3.72
2023-02-04T17:43:43.461Z,4.07
2023-02-04T17:46:10.618Z,4.45
2023-02-04T17:48:44.571Z,4.35
2023-02-04T17:51:11.774Z,4.57
2023-02-04T17:53:40.481Z,5.28
2023-02-04T17:56:18.442Z,3.90
2023-02-04T18:01:33.935Z,3.70
2023-02-04T18:04:01.255Z,3.40
2023-02-04T18:06:35.509Z,3.80
2023-02-04T18:09:03.171Z,3.73
2023-02-04T18:11:39.433Z,3.63
2023-02-04T18:14:13.122Z,4.37
2023-02-04T18:16:47.662Z,4.43
2023-02-04T18:19:22.313Z,3.50
2023-02-04T18:21:57.490Z,4.17
2023-02-04T18:24:36.168Z,3.73
2023-02-04T18:27:16.866Z,3.90
2023-02-04T18:29:46.279Z,3.70
2023-02-04T18:32:38.455Z,3.30
2023-02-04T18:35:30.378Z,3.10
2023-02-04T18:37:57.625Z,3.33
2023-02-04T18:40:33.622Z,2.63
2023-02-04T18:43:10.406Z,3.23
2023-02-04T18:45:44.371Z,3.23
2023-02-04T18:48:20.549Z,2.90
2023-02-04T18:50:58.389Z,2.70
2023-02-04T18:53:27.196Z,3.25
2023-02-04T18:55:55.449Z,2.77
2023-02-04T18:58:48.454Z,2.47
2023-02-04T19:01:27.728Z,3.57
2023-02-04T19:04:02.517Z,2.80
2023-02-04T19:06:34.049Z,3.07
2023-02-04T19:09:20.475Z,3.03
2023-02-04T19:11:48.806Z,2.83
2023-02-04T19:14:25.521Z,2.67
2023-02-04T19:16:54.587Z,5.95
2023-02-04T19:19:31.544Z,10.50
2023-02-04T19:21:58.801Z,2.83
2023-02-04T19:24:35.509Z,2.65
2023-02-04T19:27:04.982Z,3.60
2023-02-04T19:29:46.507Z,3.72
2023-02-04T19:32:22.493Z,3.03
2023-02-04T19:34:56.488Z,3.28
2023-02-04T19:37:26.852Z,4.03
2023-02-04T19:40:01.559Z,3.45
2023-02-04T19:42:37.898Z,3.25
2023-02-04T19:45:25.530Z,3.08
2023-02-04T19:47:54.163Z,2.30
2023-02-04T19:50:33.429Z,2.45
2023-02-04T19:53:02.017Z,2.40
2023-02-04T19:55:37.610Z,2.58
2023-02-04T19:58:21.191Z,3.00
2023-02-04T20:01:05.600Z,2.33
2023-02-04T20:03:43.430Z,2.72
2023-02-04T20:06:17.449Z,2.83
2023-02-04T20:08:46.528Z,2.65
2023-02-04T20:11:36.521Z,2.65
2023-02-04T20:14:15.706Z,2.67
2023-02-04T20:16:49.750Z,2.78
2023-02-04T20:19:22.977Z,3.30
2023-02-04T20:22:15.575Z,3.75
2023-02-04T20:24:43.194Z,3.63
2023-02-04T20:27:26.685Z,3.15
2023-02-04T20:30:17.433Z,2.85
2023-02-04T20:33:01.455Z,2.60
2023-02-04T20:35:35.444Z,3.00
2023-02-04T20:38:17.455Z,2.70
2023-02-04T20:40:46.729Z,3.17
2023-02-04T20:43:24.827Z,3.22
2023-02-04T20:45:57.661Z,2.45
2023-02-04T20:48:38.589Z,2.45
2023-02-04T20:51:15.417Z,3.08
2023-02-04T20:53:49.535Z,2.78
2023-02-04T20:56:16.702Z,2.63
2023-02-04T20:58:51.462Z,2.50
2023-02-04T21:01:31.534Z,2.42
2023-02-04T21:04:05.626Z,2.92
2023-02-04T21:06:34.956Z,2.75
2023-02-04T21:09:04.301Z,2.78
2023-02-04T21:11:38.461Z,2.53
2023-02-04T21:14:05.699Z,2.65
2023-02-04T21:16:39.528Z,2.30
2023-02-04T21:19:06.739Z,3.08
2023-02-04T21:21:33.817Z,2.70
2023-02-04T21:24:07.550Z,2.60
2023-02-04T21:26:34.846Z,3.20
2023-02-04T21:29:08.577Z,2.70
2023-02-04T21:31:35.905Z,3.00
2023-02-04T21:36:36.649Z,2.97
2023-02-04T21:39:03.914Z,3.13
2023-02-04T21:41:37.739Z,3.17
2023-02-04T21:44:04.935Z,2.90
2023-02-04T21:46:33.049Z,2.75
2023-02-04T21:49:07.555Z,2.50
2023-02-04T21:51:34.862Z,3.15
2023-02-04T21:56:39.519Z,2.97
2023-02-04T21:59:27.489Z,2.60
2023-02-04T22:01:54.697Z,3.03
2023-02-04T22:06:55.461Z,2.80
2023-02-04T22:09:22.623Z,2.55
2023-02-04T22:11:56.613Z,2.53
2023-02-04T22:14:23.766Z,2.72
2023-02-04T22:16:50.849Z,2.42
2023-02-04T22:19:26.466Z,3.10
2023-02-04T22:21:53.625Z,2.75
2023-02-04T22:24:27.720Z,2.60
2023-02-04T22:26:54.917Z,2.90
2023-02-04T22:29:25.025Z,2.60
2023-02-04T22:31:58.466Z,2.80
2023-02-04T22:34:26.050Z,2.90
2023-02-04T22:36:53.293Z,2.60
2023-02-04T22:39:26.494Z,2.33
2023-02-04T22:41:53.835Z,2.85
2023-02-04T22:46:54.923Z,2.85
2023-02-04T22:51:55.665Z,2.65
2023-02-04T22:54:22.847Z,2.47
2023-02-04T22:56:49.948Z,2.35
2023-02-04T22:59:23.522Z,2.58
2023-02-04T23:01:57.528Z,2.40
2023-02-04T23:04:31.595Z,2.50
2023-02-04T23:07:00.728Z,2.10
2023-02-04T23:09:28.330Z,2.63
2023-02-04T23:12:03.489Z,2.25
2023-02-04T23:14:30.688Z,2.20
2023-02-04T23:17:04.539Z,2.75
2023-02-04T23:19:33.323Z,2.70
2023-02-04T23:22:00.450Z,2.13
2023-02-04T23:24:34.488Z,2.63
2023-02-04T23:27:02.208Z,2.15
2023-02-04T23:29:36.627Z,2.53
2023-02-04T23:32:04.306Z,2.35
2023-02-04T23:34:31.745Z,2.63
2023-02-04T23:39:32.665Z,2.45
2023-02-04T23:42:06.707Z,2.33
2023-02-04T23:44:33.921Z,2.88
2023-02-04T23:47:01.006Z,2.33
2023-02-04T23:49:34.501Z,2.35
2023-02-04T23:52:01.948Z,2.30
2023-02-04T23:57:03.209Z,2.28
2023-02-04T23:59:46.639Z,3.13
